Time;durP1;ratioP1;P1;durP2;ratioP2;P2;SDS_P1;SDS_P2;PMS_P1;PMS_P2;Temp;Humidity;BMP_temperature;BMP_pressure;BME280_temperature;BME280_humidity;BME280_pressure;Samples;Min_cycle;Max_cycle;Signal;HPM_P1;HPM_P2
2022/01/04 00:00:15;;;;;;;;;;;9.80;98.20;;;;;;5051950;28;19941;-78
2022/01/04 00:02:42;;;;;;;;;;;9.80;98.30;;;;;;5060410;28;19936;-78
2022/01/04 00:05:09;;;;;;;;;;;9.80;98.30;;;;;;5050588;28;19933;-77
2022/01/04 00:07:36;;;;;;;;;;;9.80;98.30;;;;;;5061047;28;20384;-77
2022/01/04 00:10:03;;;;;;;;;;;9.90;98.40;;;;;;5062313;28;19929;-75
2022/01/04 00:15:15;;;;;;;;;;;9.90;98.40;;;;;;5057436;28;20299;-77
2022/01/04 00:17:41;;;;;;;;;;;9.80;98.40;;;;;;5056898;28;20040;-77
2022/01/04 00:20:08;;;;;;;;;;;9.90;98.50;;;;;;5062184;28;19940;-75
2022/01/04 00:22:35;;;;;;;;;;;9.90;98.50;;;;;;5060849;28;19928;-77
2022/01/04 00:25:01;;;;;;;;;;;9.90;98.50;;;;;;5057462;28;19928;-77
2022/01/04 00:27:28;;;;;;;;;;;9.80;98.50;;;;;;5062719;28;19940;-77
2022/01/04 00:29:55;;;;;;;;;;;9.80;98.60;;;;;;5058179;28;20450;-77
2022/01/04 00:32:23;;;;;;;;;;;9.90;98.60;;;;;;5057872;28;21330;-77
2022/01/04 00:34:49;;;;;;;;;;;9.90;98.60;;;;;;5058230;28;19939;-77
2022/01/04 00:37:16;;;;;;;;;;;9.90;98.70;;;;;;5059735;28;19956;-77
2022/01/04 00:39:42;;;;;;;;;;;9.90;98.70;;;;;;5062180;28;19936;-76
2022/01/04 00:42:09;;;;;;;;;;;9.90;98.70;;;;;;5061490;28;19940;-78
2022/01/04 00:44:36;;;;;;;;;;;9.90;98.70;;;;;;5060490;28;19935;-77
2022/01/04 00:47:02;;;;;;;;;;;9.90;98.70;;;;;;5056099;28;19940;-76
2022/01/04 00:49:29;;;;;;;;;;;9.90;98.70;;;;;;5060161;28;20449;-77
2022/01/04 00:51:56;;;;;;;;;;;9.90;98.80;;;;;;5058769;28;19928;-77
2022/01/04 00:54:23;;;;;;;;;;;9.90;98.80;;;;;;5059784;28;19970;-77
2022/01/04 00:56:50;;;;;;;;;;;9.90;98.80;;;;;;5066255;28;19932;-77
2022/01/04 00:59:17;;;;;;;;;;;9.80;98.70;;;;;;5059710;28;19928;-77
2022/01/04 01:01:44;;;;;;;;;;;9.90;98.70;;;;;;5061436;28;19932;-77
2022/01/04 01:04:11;;;;;;;;;;;9.90;98.70;;;;;;5057690;28;19932;-77
2022/01/04 01:06:39;;;;;;;;;;;9.90;98.80;;;;;;5055278;28;20019;-77
2022/01/04 01:09:06;;;;;;;;;;;9.90;98.80;;;;;;5059581;28;19935;-76
2022/01/04 01:11:33;;;;;;;;;;;9.90;98.80;;;;;;5058699;28;19928;-77
2022/01/04 01:13:59;;;;;;;;;;;9.90;98.70;;;;;;5057913;28;19928;-77
2022/01/04 01:16:26;;;;;;;;;;;9.90;98.80;;;;;;5055045;28;20120;-76
2022/01/04 01:18:52;;;;;;;;;;;9.90;98.80;;;;;;5060230;28;19935;-77
2022/01/04 01:21:19;;;;;;;;;;;9.90;98.80;;;;;;5058519;28;19924;-77
2022/01/04 01:23:47;;;;;;;;;;;9.90;98.80;;;;;;5056642;28;20288;-77
2022/01/04 01:26:13;;;;;;;;;;;9.90;98.80;;;;;;5061021;28;19961;-77
2022/01/04 01:28:40;;;;;;;;;;;9.90;98.80;;;;;;5060699;28;19928;-77
2022/01/04 01:31:07;;;;;;;;;;;9.90;98.80;;;;;;5055630;28;20559;-77
2022/01/04 01:33:34;;;;;;;;;;;9.90;98.80;;;;;;5059153;28;19937;-77
2022/01/04 01:36:00;;;;;;;;;;;9.90;98.80;;;;;;5058343;28;19939;-77
2022/01/04 01:38:27;;;;;;;;;;;9.90;98.80;;;;;;5059700;28;19959;-77
2022/01/04 01:40:55;;;;;;;;;;;9.90;98.90;;;;;;5062642;28;20015;-77
2022/01/04 01:43:24;;;;;;;;;;;9.90;98.90;;;;;;5061441;28;19936;-77
2022/01/04 01:45:50;;;;;;;;;;;9.90;98.90;;;;;;5057205;28;19928;-78
2022/01/04 01:48:17;;;;;;;;;;;9.90;98.90;;;;;;5060334;28;19981;-77
2022/01/04 01:50:43;;;;;;;;;;;9.90;98.90;;;;;;5059330;28;19936;-77
2022/01/04 01:53:10;;;;;;;;;;;9.90;98.90;;;;;;5054659;28;19936;-77
2022/01/04 01:55:36;;;;;;;;;;;9.90;98.90;;;;;;5056070;28;19974;-76
2022/01/04 01:58:05;;;;;;;;;;;9.90;98.90;;;;;;5059205;28;19928;-76
2022/01/04 02:00:31;;;;;;;;;;;9.90;98.90;;;;;;5058209;28;19928;-76
2022/01/04 02:02:59;;;;;;;;;;;9.90;98.90;;;;;;5061030;28;19974;-77
2022/01/04 02:05:26;;;;;;;;;;;9.90;98.90;;;;;;5059734;28;19928;-74
2022/01/04 02:07:53;;;;;;;;;;;9.90;99.00;;;;;;5059855;28;19925;-77
2022/01/04 02:10:19;;;;;;;;;;;9.90;99.00;;;;;;5063574;28;19932;-77
2022/01/04 02:12:47;;;;;;;;;;;9.90;99.00;;;;;;5064234;28;19928;-77
2022/01/04 02:15:16;;;;;;;;;;;9.90;99.00;;;;;;5059105;28;19939;-77
2022/01/04 02:17:43;;;;;;;;;;;9.90;99.00;;;;;;5059188;28;19929;-77
2022/01/04 02:20:11;;;;;;;;;;;9.90;99.00;;;;;;5065900;28;20639;-77
2022/01/04 02:22:38;;;;;;;;;;;9.80;99.00;;;;;;5061266;28;20755;-77
2022/01/04 02:25:06;;;;;;;;;;;9.90;99.00;;;;;;5058358;28;19936;-77
2022/01/04 02:27:33;;;;;;;;;;;9.90;99.00;;;;;;5066501;28;19939;-77
2022/01/04 02:29:59;;;;;;;;;;;9.80;99.00;;;;;;5063455;28;19932;-77
2022/01/04 02:32:26;;;;;;;;;;;9.80;99.00;;;;;;5064100;28;20475;-77
2022/01/04 02:34:53;;;;;;;;;;;9.90;99.00;;;;;;5062921;28;20749;-77
2022/01/04 02:37:22;;;;;;;;;;;9.80;99.00;;;;;;5057967;28;19932;-77
2022/01/04 02:39:48;;;;;;;;;;;9.90;99.10;;;;;;5063297;28;20471;-78
2022/01/04 02:42:15;;;;;;;;;;;9.90;99.10;;;;;;5065850;28;19932;-78
2022/01/04 02:44:42;;;;;;;;;;;9.80;99.10;;;;;;5066700;28;20439;-78
2022/01/04 02:47:08;;;;;;;;;;;9.90;99.20;;;;;;5040169;28;20796;-77
2022/01/04 02:49:35;;;;;;;;;;;9.80;99.10;;;;;;5049451;28;19955;-78
2022/01/04 02:52:02;;;;;;;;;;;9.90;99.20;;;;;;5045682;28;19928;-78
2022/01/04 02:54:29;;;;;;;;;;;9.80;99.20;;;;;;5047622;28;19933;-78
2022/01/04 02:56:56;;;;;;;;;;;9.90;99.20;;;;;;5047137;28;20500;-78
2022/01/04 02:59:22;;;;;;;;;;;9.90;99.20;;;;;;5042519;28;20616;-78
2022/01/04 03:01:49;;;;;;;;;;;9.80;99.20;;;;;;5045098;28;19936;-78
2022/01/04 03:04:16;;;;;;;;;;;9.80;99.10;;;;;;5041141;28;20511;-78
2022/01/04 03:06:42;;;;;;;;;;;9.80;99.10;;;;;;5037844;28;19928;-78
2022/01/04 03:09:09;;;;;;;;;;;9.80;99.10;;;;;;5041216;28;19928;-78
2022/01/04 03:11:37;;;;;;;;;;;9.80;99.10;;;;;;5039808;28;20388;-78
2022/01/04 03:14:04;;;;;;;;;;;9.90;99.20;;;;;;5038727;28;19935;-78
2022/01/04 03:16:31;;;;;;;;;;;9.80;99.20;;;;;;5036444;28;19954;-78
2022/01/04 03:21:41;;;;;;;;;;;9.80;99.20;;;;;;5040923;28;20014;-78
2022/01/04 03:24:08;;;;;;;;;;;9.80;99.10;;;;;;5044288;28;19929;-77
2022/01/04 03:26:36;;;;;;;;;;;9.80;99.20;;;;;;5044907;28;19936;-78
2022/01/04 03:29:04;;;;;;;;;;;9.80;99.20;;;;;;5047438;28;20110;-78
2022/01/04 03:31:31;;;;;;;;;;;9.80;99.20;;;;;;5037830;28;19951;-78
2022/01/04 03:33:58;;;;;;;;;;;9.80;99.20;;;;;;5042478;28;19937;-78
2022/01/04 03:36:25;;;;;;;;;;;9.90;99.30;;;;;;5044204;28;19929;-78
2022/01/04 03:38:52;;;;;;;;;;;9.80;99.30;;;;;;5044440;28;19934;-78
2022/01/04 03:41:19;;;;;;;;;;;9.90;99.30;;;;;;5038182;28;19932;-79
2022/01/04 03:43:46;;;;;;;;;;;9.80;99.30;;;;;;5040422;28;19929;-78
2022/01/04 03:46:14;;;;;;;;;;;9.80;99.30;;;;;;5041057;28;20420;-78
2022/01/04 03:48:40;;;;;;;;;;;9.80;99.30;;;;;;5046278;28;20651;-78
2022/01/04 03:51:07;;;;;;;;;;;9.80;99.20;;;;;;5040769;28;20559;-78
2022/01/04 03:53:34;;;;;;;;;;;9.80;99.20;;;;;;5044446;28;19928;-78
2022/01/04 03:56:01;;;;;;;;;;;9.80;99.20;;;;;;5043370;28;19928;-78
2022/01/04 03:58:27;;;;;;;;;;;9.80;99.30;;;;;;5043535;28;19940;-78
2022/01/04 04:00:54;;;;;;;;;;;9.80;99.30;;;;;;5041299;28;19928;-77
2022/01/04 04:03:22;;;;;;;;;;;9.80;99.30;;;;;;5036871;28;20016;-78
2022/01/04 04:05:49;;;;;;;;;;;9.80;99.30;;;;;;5034971;28;19927;-78
2022/01/04 04:08:16;;;;;;;;;;;9.80;99.30;;;;;;5042230;28;20312;-78
2022/01/04 04:10:42;;;;;;;;;;;9.80;99.40;;;;;;5036845;28;19929;-78
2022/01/04 04:13:09;;;;;;;;;;;9.80;99.40;;;;;;5041068;28;20612;-76
2022/01/04 04:15:38;;;;;;;;;;;9.80;99.30;;;;;;5041174;28;20514;-78
2022/01/04 04:18:05;;;;;;;;;;;9.80;99.40;;;;;;5048022;28;20072;-78
2022/01/04 04:20:32;;;;;;;;;;;9.80;99.40;;;;;;5054891;28;20426;-78
2022/01/04 04:22:59;;;;;;;;;;;9.80;99.40;;;;;;5045947;28;19928;-78
2022/01/04 04:25:25;;;;;;;;;;;9.80;99.40;;;;;;5046234;28;19951;-78
2022/01/04 04:27:52;;;;;;;;;;;9.80;99.40;;;;;;5037513;28;20643;-78
2022/01/04 04:30:18;;;;;;;;;;;9.90;99.40;;;;;;5044309;28;19940;-77
2022/01/04 04:32:45;;;;;;;;;;;9.80;99.40;;;;;;5047716;28;19935;-77
2022/01/04 04:35:12;;;;;;;;;;;9.80;99.50;;;;;;5043905;28;19928;-77
2022/01/04 04:37:40;;;;;;;;;;;9.80;99.50;;;;;;5040610;28;19932;-75
2022/01/04 04:40:07;;;;;;;;;;;9.80;99.50;;;;;;5043124;28;19928;-77
2022/01/04 04:42:34;;;;;;;;;;;9.80;99.50;;;;;;5043087;28;19935;-77
2022/01/04 04:45:00;;;;;;;;;;;9.80;99.60;;;;;;5041999;28;19933;-77
2022/01/04 04:47:27;;;;;;;;;;;9.80;99.60;;;;;;5041516;28;19939;-78
2022/01/04 04:49:53;;;;;;;;;;;9.80;99.60;;;;;;5043060;28;20130;-78
2022/01/04 04:52:20;;;;;;;;;;;9.80;99.60;;;;;;5038535;28;19987;-78
2022/01/04 04:54:48;;;;;;;;;;;9.80;99.60;;;;;;5043172;28;19925;-77
2022/01/04 04:57:15;;;;;;;;;;;9.80;99.60;;;;;;5043203;28;20300;-77
2022/01/04 04:59:42;;;;;;;;;;;9.80;99.60;;;;;;5041524;28;19933;-77
2022/01/04 05:02:08;;;;;;;;;;;9.80;99.70;;;;;;5044099;28;19970;-77
2022/01/04 05:04:35;;;;;;;;;;;9.80;99.70;;;;;;5039820;28;19936;-78
2022/01/04 05:07:02;;;;;;;;;;;9.80;99.70;;;;;;5040136;28;19929;-77
2022/01/04 05:09:28;;;;;;;;;;;9.80;99.70;;;;;;5043209;28;19940;-77
2022/01/04 05:11:56;;;;;;;;;;;9.80;99.60;;;;;;5043608;28;19933;-78
2022/01/04 05:14:23;;;;;;;;;;;9.80;99.60;;;;;;5042728;28;19932;-77
2022/01/04 05:16:50;;;;;;;;;;;9.80;99.70;;;;;;5041528;28;19947;-77
2022/01/04 05:19:17;;;;;;;;;;;9.80;99.70;;;;;;5041563;28;19929;-78
2022/01/04 05:21:43;;;;;;;;;;;9.80;99.70;;;;;;5042225;28;19968;-77
2022/01/04 05:24:11;;;;;;;;;;;9.80;99.70;;;;;;5042379;28;19967;-78
2022/01/04 05:26:38;;;;;;;;;;;9.80;99.70;;;;;;5042556;28;19937;-77
2022/01/04 05:29:06;;;;;;;;;;;9.80;99.80;;;;;;5038348;28;19933;-77
2022/01/04 05:31:32;;;;;;;;;;;9.80;99.80;;;;;;5043048;28;20578;-77
2022/01/04 05:33:59;;;;;;;;;;;9.80;99.80;;;;;;5044214;28;19936;-77
2022/01/04 05:36:26;;;;;;;;;;;9.80;99.80;;;;;;5042171;28;19932;-77
2022/01/04 05:38:52;;;;;;;;;;;9.80;99.80;;;;;;5044614;28;19936;-77
2022/01/04 05:41:19;;;;;;;;;;;9.80;99.90;;;;;;5044186;28;19959;-78
2022/01/04 05:43:47;;;;;;;;;;;9.80;99.90;;;;;;5046915;28;20414;-77
2022/01/04 05:46:15;;;;;;;;;;;9.80;99.90;;;;;;5048039;28;19929;-78
2022/01/04 05:48:42;;;;;;;;;;;9.90;99.90;;;;;;5064992;28;19925;-77
2022/01/04 05:51:08;;;;;;;;;;;9.80;99.90;;;;;;5062652;28;19932;-78
2022/01/04 05:53:35;;;;;;;;;;;9.80;99.90;;;;;;5064662;28;19951;-78
2022/01/04 05:56:02;;;;;;;;;;;9.80;99.90;;;;;;5064786;28;19971;-78
2022/01/04 05:58:28;;;;;;;;;;;9.80;99.90;;;;;;5065703;28;19948;-80
2022/01/04 06:00:55;;;;;;;;;;;9.80;99.90;;;;;;5067516;28;19940;-77
2022/01/04 06:03:22;;;;;;;;;;;9.80;99.90;;;;;;5063140;28;19932;-78
2022/01/04 06:05:49;;;;;;;;;;;9.90;99.90;;;;;;5059184;28;19963;-77
2022/01/04 06:08:16;;;;;;;;;;;9.80;99.90;;;;;;5055509;28;20506;-77
2022/01/04 06:10:44;;;;;;;;;;;9.90;99.90;;;;;;5064291;28;20676;-77
2022/01/04 06:15:54;;;;;;;;;;;9.90;99.90;;;;;;5056371;28;20501;-78
2022/01/04 06:18:21;;;;;;;;;;;9.90;99.90;;;;;;5062653;28;19925;-79
2022/01/04 06:20:50;;;;;;;;;;;9.90;99.90;;;;;;5063718;28;19924;-79
2022/01/04 06:23:17;;;;;;;;;;;9.90;99.90;;;;;;5064755;28;19932;-78
2022/01/04 06:25:43;;;;;;;;;;;9.90;99.90;;;;;;5070859;28;19928;-78
2022/01/04 06:28:10;;;;;;;;;;;9.90;99.90;;;;;;5065656;28;19986;-79
2022/01/04 06:30:37;;;;;;;;;;;9.90;99.90;;;;;;5062542;28;19941;-77
2022/01/04 06:33:03;;;;;;;;;;;9.90;99.90;;;;;;5046603;28;20396;-77
2022/01/04 06:35:33;;;;;;;;;;;9.90;99.90;;;;;;5048322;28;19936;-69
2022/01/04 06:38:01;;;;;;;;;;;9.90;99.90;;;;;;5043876;28;19940;-69
2022/01/04 06:40:27;;;;;;;;;;;9.90;99.90;;;;;;5045961;28;19929;-70
2022/01/04 06:42:54;;;;;;;;;;;10.00;99.90;;;;;;5045783;28;19955;-69
2022/01/04 06:45:21;;;;;;;;;;;10.00;99.90;;;;;;5042100;28;19929;-68
2022/01/04 06:47:47;;;;;;;;;;;10.00;99.90;;;;;;5040034;28;19928;-69
2022/01/04 06:50:14;;;;;;;;;;;10.00;99.90;;;;;;5034902;28;20344;-67
2022/01/04 06:52:41;;;;;;;;;;;9.90;99.90;;;;;;5037552;28;19968;-69
2022/01/04 06:55:09;;;;;;;;;;;10.00;99.90;;;;;;5032139;28;19929;-68
2022/01/04 06:57:35;;;;;;;;;;;10.00;99.90;;;;;;5041065;28;19932;-69
2022/01/04 07:00:03;;;;;;;;;;;10.00;99.90;;;;;;5043209;28;19935;-68
2022/01/04 07:02:30;;;;;;;;;;;10.00;99.90;;;;;;5038263;28;20573;-69
2022/01/04 07:04:56;;;;;;;;;;;10.00;99.90;;;;;;5037445;28;19936;-76
2022/01/04 07:07:23;;;;;;;;;;;10.00;99.90;;;;;;5038478;28;19929;-76
2022/01/04 07:09:50;;;;;;;;;;;10.00;99.90;;;;;;5043752;28;20645;-76
2022/01/04 07:12:18;;;;;;;;;;;10.00;99.90;;;;;;5041203;28;19956;-76
2022/01/04 07:14:45;;;;;;;;;;;10.00;99.90;;;;;;5031474;28;19940;-76
2022/01/04 07:17:11;;;;;;;;;;;10.00;99.90;;;;;;5032065;28;19933;-76
2022/01/04 07:19:39;;;;;;;;;;;10.00;99.90;;;;;;5038685;28;19940;-77
2022/01/04 07:22:05;;;;;;;;;;;10.00;99.90;;;;;;5041971;28;19929;-77
2022/01/04 07:24:32;;;;;;;;;;;10.10;99.90;;;;;;5044452;28;19940;-76
2022/01/04 07:26:58;;;;;;;;;;;10.10;99.90;;;;;;5044558;28;19932;-76
2022/01/04 07:29:26;;;;;;;;;;;10.00;99.90;;;;;;5040620;28;19936;-76
2022/01/04 07:31:53;;;;;;;;;;;10.10;99.90;;;;;;5057136;28;19932;-76
2022/01/04 07:34:20;;;;;;;;;;;10.10;99.90;;;;;;5063068;28;19932;-76
2022/01/04 07:36:46;;;;;;;;;;;10.10;99.90;;;;;;5055140;28;19960;-74
2022/01/04 07:39:13;;;;;;;;;;;10.10;99.90;;;;;;5059413;28;19936;-75
2022/01/04 07:41:39;;;;;;;;;;;10.10;99.90;;;;;;5059228;28;19982;-76
2022/01/04 07:44:22;;;;;;;;;;;10.10;99.90;;;;;;5063104;28;19929;-75
2022/01/04 07:46:50;;;;;;;;;;;10.10;99.90;;;;;;5057981;28;19967;-77
2022/01/04 07:49:17;;;;;;;;;;;10.10;99.90;;;;;;5057706;28;19932;-75
2022/01/04 07:51:44;;;;;;;;;;;10.10;99.90;;;;;;5058570;28;20503;-78
2022/01/04 07:54:11;;;;;;;;;;;10.10;99.90;;;;;;5055767;28;19935;-78
2022/01/04 07:56:38;;;;;;;;;;;10.20;99.90;;;;;;5056279;28;20514;-78
2022/01/04 07:59:05;;;;;;;;;;;10.20;99.90;;;;;;5064553;28;19933;-77
2022/01/04 08:01:32;;;;;;;;;;;10.10;99.90;;;;;;5057873;28;19939;-77
2022/01/04 08:04:00;;;;;;;;;;;10.20;99.90;;;;;;5058232;28;19936;-76
2022/01/04 08:06:27;;;;;;;;;;;10.20;99.90;;;;;;5059437;28;19936;-77
2022/01/04 08:08:53;;;;;;;;;;;10.20;99.90;;;;;;5056714;28;19928;-76
2022/01/04 08:11:20;;;;;;;;;;;10.20;99.90;;;;;;5051482;28;20309;-77
2022/01/04 08:13:47;;;;;;;;;;;10.20;99.90;;;;;;5059504;28;19925;-78
2022/01/04 08:16:15;;;;;;;;;;;10.20;99.90;;;;;;5060091;28;19974;-79
2022/01/04 08:18:41;;;;;;;;;;;10.20;99.90;;;;;;5060447;28;20356;-78
2022/01/04 08:21:09;;;;;;;;;;;10.20;99.90;;;;;;5056848;28;19928;-77
2022/01/04 08:23:36;;;;;;;;;;;10.20;99.90;;;;;;5060675;28;19940;-78
2022/01/04 08:26:03;;;;;;;;;;;10.20;99.90;;;;;;5056807;28;19956;-78
2022/01/04 08:28:30;;;;;;;;;;;10.20;99.90;;;;;;5060656;28;19935;-78
2022/01/04 08:30:57;;;;;;;;;;;10.20;99.90;;;;;;5057118;28;19937;-77
2022/01/04 08:33:23;;;;;;;;;;;10.30;99.90;;;;;;5060976;28;19932;-77
2022/01/04 08:35:50;;;;;;;;;;;10.30;99.90;;;;;;5056736;28;19974;-77
2022/01/04 08:38:18;;;;;;;;;;;10.30;99.90;;;;;;5061389;28;19936;-79
2022/01/04 08:40:45;;;;;;;;;;;10.30;99.90;;;;;;5061783;28;19928;-77
2022/01/04 08:43:11;;;;;;;;;;;10.30;99.90;;;;;;5066757;28;19928;-78
2022/01/04 08:45:38;;;;;;;;;;;10.30;99.90;;;;;;5057480;28;19932;-78
2022/01/04 08:48:05;;;;;;;;;;;10.30;99.90;;;;;;5062238;28;19932;-77
2022/01/04 08:50:32;;;;;;;;;;;10.30;99.90;;;;;;5057847;28;20396;-78
2022/01/04 08:52:58;;;;;;;;;;;10.40;99.90;;;;;;5056212;28;20355;-78
2022/01/04 08:55:26;;;;;;;;;;;10.30;99.90;;;;;;5060646;28;19932;-78
2022/01/04 08:57:53;;;;;;;;;;;10.40;99.90;;;;;;5061291;28;20137;-77
2022/01/04 09:00:20;;;;;;;;;;;10.40;99.90;;;;;;5058290;28;19928;-78
2022/01/04 09:02:47;;;;;;;;;;;10.40;99.90;;;;;;5057101;28;19936;-77
2022/01/04 09:05:13;;;;;;;;;;;10.40;99.90;;;;;;5057658;28;19933;-78
2022/01/04 09:07:40;;;;;;;;;;;10.40;99.90;;;;;;5057693;28;19928;-77
2022/01/04 09:10:07;;;;;;;;;;;10.40;99.90;;;;;;5058780;28;19958;-78
2022/01/04 09:12:46;;;;;;;;;;;10.40;99.90;;;;;;5060317;28;19935;-78
2022/01/04 09:20:42;;;;;;;;;;;10.40;99.90;;;;;;5058090;28;19931;-77
2022/01/04 09:23:09;;;;;;;;;;;10.40;99.90;;;;;;5058800;28;20809;-77
2022/01/04 09:25:36;;;;;;;;;;;10.40;99.90;;;;;;5057012;28;19943;-77
2022/01/04 09:28:05;;;;;;;;;;;10.50;99.90;;;;;;5061179;28;20017;-78
2022/01/04 09:30:31;;;;;;;;;;;10.40;99.90;;;;;;5053092;28;19925;-78
2022/01/04 09:32:59;;;;;;;;;;;10.40;99.90;;;;;;5040838;28;19940;-78
2022/01/04 09:35:26;;;;;;;;;;;10.50;99.90;;;;;;5040156;28;19932;-77
2022/01/04 09:37:52;;;;;;;;;;;10.50;99.90;;;;;;5039283;28;19936;-78
2022/01/04 09:40:19;;;;;;;;;;;10.40;99.90;;;;;;5037517;28;20215;-77
2022/01/04 09:42:47;;;;;;;;;;;10.50;99.90;;;;;;5040402;28;19939;-78
2022/01/04 09:45:15;;;;;;;;;;;10.50;99.90;;;;;;5037587;28;19940;-77
2022/01/04 09:47:42;;;;;;;;;;;10.50;99.90;;;;;;5035945;28;19933;-77
2022/01/04 09:50:10;;;;;;;;;;;10.50;99.90;;;;;;5034241;28;19929;-78
2022/01/04 09:52:39;;;;;;;;;;;10.50;99.90;;;;;;5037538;28;19939;-78
2022/01/04 09:55:06;;;;;;;;;;;10.50;99.90;;;;;;5041240;28;19936;-78
2022/01/04 09:57:33;;;;;;;;;;;10.50;99.90;;;;;;5035102;28;19944;-78
2022/01/04 09:59:59;;;;;;;;;;;10.50;99.90;;;;;;5035787;28;19929;-77
2022/01/04 10:02:30;;;;;;;;;;;10.50;99.90;;;;;;5035795;28;19932;-77
2022/01/04 10:05:12;;;;;;;;;;;10.50;99.90;;;;;;5033673;28;19941;-77
2022/01/04 10:07:39;;;;;;;;;;;10.50;99.90;;;;;;5036331;28;19943;-77
2022/01/04 10:10:06;;;;;;;;;;;10.60;99.90;;;;;;5032432;28;19950;-77
2022/01/04 10:12:47;;;;;;;;;;;10.60;99.90;;;;;;5038263;28;19929;-77
2022/01/04 10:15:14;;;;;;;;;;;10.60;99.90;;;;;;5031377;28;20523;-77
2022/01/04 10:17:42;;;;;;;;;;;10.60;99.90;;;;;;5034678;28;19933;-78
2022/01/04 10:20:09;;;;;;;;;;;10.60;99.90;;;;;;5037823;28;19948;-79
2022/01/04 10:22:36;;;;;;;;;;;10.60;99.90;;;;;;5040471;28;19936;-78
2022/01/04 10:25:10;;;;;;;;;;;10.60;99.90;;;;;;5040283;28;19932;-77
2022/01/04 10:27:37;;;;;;;;;;;10.60;99.90;;;;;;5040867;28;19936;-78
2022/01/04 10:30:11;;;;;;;;;;;10.60;99.90;;;;;;5040508;28;20341;-78
2022/01/04 10:32:46;;;;;;;;;;;10.60;99.90;;;;;;5043402;28;19932;-78
2022/01/04 10:35:21;;;;;;;;;;;10.60;99.90;;;;;;5041686;28;20343;-77
2022/01/04 10:37:48;;;;;;;;;;;10.60;99.90;;;;;;5039321;28;19929;-77
2022/01/04 10:40:15;;;;;;;;;;;10.70;99.90;;;;;;5044002;28;19940;-77
2022/01/04 10:42:42;;;;;;;;;;;10.70;99.90;;;;;;5036688;28;19957;-77
2022/01/04 10:45:29;;;;;;;;;;;10.70;99.90;;;;;;5045233;28;20388;-77
2022/01/04 10:48:09;;;;;;;;;;;10.70;99.90;;;;;;5060760;28;19929;-77
2022/01/04 10:50:36;;;;;;;;;;;10.70;99.90;;;;;;5060613;28;20508;-77
2022/01/04 10:53:03;;;;;;;;;;;10.70;99.90;;;;;;5055912;28;19936;-77
2022/01/04 10:55:31;;;;;;;;;;;10.70;99.90;;;;;;5066726;28;19944;-77
2022/01/04 10:57:58;;;;;;;;;;;10.70;99.90;;;;;;5069697;28;19975;-78
2022/01/04 11:00:25;;;;;;;;;;;10.70;99.90;;;;;;5057437;28;19982;-78
2022/01/04 11:02:52;;;;;;;;;;;10.70;99.90;;;;;;5042796;28;19936;-77
2022/01/04 11:05:21;;;;;;;;;;;10.70;99.90;;;;;;5044675;28;19929;-76
2022/01/04 11:07:57;;;;;;;;;;;10.70;99.90;;;;;;5041376;28;19929;-77
2022/01/04 11:10:24;;;;;;;;;;;10.70;99.90;;;;;;5045948;28;19948;-77
2022/01/04 11:12:51;;;;;;;;;;;10.70;99.90;;;;;;5048313;28;20389;-77
2022/01/04 11:15:18;;;;;;;;;;;10.70;99.90;;;;;;5040998;28;19929;-78
2022/01/04 11:17:45;;;;;;;;;;;10.70;99.90;;;;;;5041553;28;19929;-77
2022/01/04 11:20:12;;;;;;;;;;;10.80;99.90;;;;;;5044281;28;19933;-77
2022/01/04 11:22:41;;;;;;;;;;;10.70;99.90;;;;;;5039838;28;19932;-77
2022/01/04 11:25:08;;;;;;;;;;;10.80;99.90;;;;;;5040449;28;20055;-77
2022/01/04 11:27:36;;;;;;;;;;;10.80;99.90;;;;;;5041340;28;20031;-78
2022/01/04 11:30:03;;;;;;;;;;;10.80;99.90;;;;;;5042731;28;20499;-77
2022/01/04 11:32:31;;;;;;;;;;;10.80;99.90;;;;;;5037686;28;19932;-77
2022/01/04 11:35:03;;;;;;;;;;;10.80;99.90;;;;;;5042230;28;19972;-77
2022/01/04 11:37:30;;;;;;;;;;;10.80;99.90;;;;;;5036427;28;19972;-78
2022/01/04 11:39:58;;;;;;;;;;;10.80;99.90;;;;;;5042203;28;19925;-78
2022/01/04 11:42:39;;;;;;;;;;;10.80;99.90;;;;;;5036161;28;19975;-78
2022/01/04 11:45:07;;;;;;;;;;;10.80;99.90;;;;;;5035688;28;19933;-78
2022/01/04 11:47:37;;;;;;;;;;;10.80;99.90;;;;;;5044239;28;21051;-78
2022/01/04 11:50:05;;;;;;;;;;;10.80;99.90;;;;;;5050306;28;19928;-79
2022/01/04 11:52:39;;;;;;;;;;;10.80;99.90;;;;;;5042874;28;19983;-78
2022/01/04 11:55:18;;;;;;;;;;;10.80;99.90;;;;;;5042013;28;19943;-78
2022/01/04 11:57:45;;;;;;;;;;;10.90;99.90;;;;;;5050117;28;19936;-78
2022/01/04 12:00:13;;;;;;;;;;;10.80;99.90;;;;;;5043767;28;19929;-78
2022/01/04 12:02:40;;;;;;;;;;;10.90;99.90;;;;;;5042032;28;20068;-78
2022/01/04 12:05:13;;;;;;;;;;;10.90;99.90;;;;;;5039953;28;20377;-78
2022/01/04 12:07:44;;;;;;;;;;;10.80;99.90;;;;;;5041255;28;21390;-77
2022/01/04 12:10:29;;;;;;;;;;;10.90;99.90;;;;;;5043315;28;20720;-77
2022/01/04 12:12:58;;;;;;;;;;;10.90;99.90;;;;;;5042734;28;19936;-77
2022/01/04 12:15:43;;;;;;;;;;;10.90;99.90;;;;;;5040959;28;19939;-78
2022/01/04 12:18:30;;;;;;;;;;;10.90;99.90;;;;;;5043191;28;19929;-77
2022/01/04 12:20:57;;;;;;;;;;;10.90;99.90;;;;;;5042245;28;19928;-77
2022/01/04 12:23:39;;;;;;;;;;;10.90;99.90;;;;;;5036192;28;19933;-77
2022/01/04 12:26:32;;;;;;;;;;;10.90;99.90;;;;;;5041272;28;19933;-77
2022/01/04 12:29:19;;;;;;;;;;;10.90;99.90;;;;;;5027565;28;19932;-78
2022/01/04 12:31:47;;;;;;;;;;;10.90;99.90;;;;;;5039542;28;19935;-77
2022/01/04 12:34:28;;;;;;;;;;;10.90;99.90;;;;;;5042144;28;19928;-76
2022/01/04 12:36:55;;;;;;;;;;;10.90;99.90;;;;;;5032318;28;19995;-77
2022/01/04 12:39:23;;;;;;;;;;;10.80;99.90;;;;;;5040130;28;19929;-78
2022/01/04 12:41:51;;;;;;;;;;;10.80;99.90;;;;;;5037125;28;19924;-77
2022/01/04 12:44:23;;;;;;;;;;;10.80;99.90;;;;;;5040002;28;19976;-77
2022/01/04 12:46:51;;;;;;;;;;;10.80;99.90;;;;;;5037682;28;19928;-77
2022/01/04 12:49:18;;;;;;;;;;;10.70;99.90;;;;;;5037816;28;19951;-78
2022/01/04 12:51:47;;;;;;;;;;;10.70;99.70;;;;;;5038814;28;19929;-77
2022/01/04 12:54:16;;;;;;;;;;;10.70;99.50;;;;;;5040737;28;19947;-77
2022/01/04 12:56:43;;;;;;;;;;;10.70;99.40;;;;;;5040367;28;20056;-77
2022/01/04 12:59:10;;;;;;;;;;;10.60;99.30;;;;;;5039356;28;19932;-77
2022/01/04 13:01:38;;;;;;;;;;;10.60;99.20;;;;;;5035334;28;19940;-77
2022/01/04 13:04:19;;;;;;;;;;;10.50;99.40;;;;;;5040627;28;22341;-77
2022/01/04 13:06:45;;;;;;;;;;;10.50;99.10;;;;;;5035008;28;19933;-77
2022/01/04 13:09:12;;;;;;;;;;;10.50;99.00;;;;;;5041347;28;19928;-77
2022/01/04 13:11:47;;;;;;;;;;;10.50;99.00;;;;;;5041266;28;19925;-77
2022/01/04 13:14:19;;;;;;;;;;;10.40;98.90;;;;;;5037830;28;21893;-77
2022/01/04 13:16:47;;;;;;;;;;;10.40;98.90;;;;;;5053075;28;19963;-77
2022/01/04 13:19:15;;;;;;;;;;;10.30;98.90;;;;;;5060218;28;19935;-77
2022/01/04 13:21:42;;;;;;;;;;;10.30;98.90;;;;;;5055714;28;19932;-77
2022/01/04 13:24:09;;;;;;;;;;;10.30;98.90;;;;;;5059635;28;19999;-77
2022/01/04 13:26:35;;;;;;;;;;;10.30;98.90;;;;;;5054022;28;20364;-78
2022/01/04 13:29:02;;;;;;;;;;;10.20;98.80;;;;;;5053885;28;19932;-76
2022/01/04 13:31:29;;;;;;;;;;;10.20;98.80;;;;;;5052679;28;19928;-77
2022/01/04 13:33:57;;;;;;;;;;;10.20;98.80;;;;;;5056743;28;19929;-77
2022/01/04 13:39:29;;;;;;;;;;;10.10;98.70;;;;;;5055244;28;20011;-77
2022/01/04 13:41:56;;;;;;;;;;;10.10;98.60;;;;;;5055538;28;19935;-76
2022/01/04 13:44:22;;;;;;;;;;;10.00;98.60;;;;;;5056086;28;19932;-77
2022/01/04 13:46:49;;;;;;;;;;;10.00;98.60;;;;;;5055756;28;19986;-74
2022/01/04 13:49:24;;;;;;;;;;;10.00;98.50;;;;;;5054508;28;19939;-73
2022/01/04 13:51:59;;;;;;;;;;;10.00;98.60;;;;;;5056824;28;19928;-76
2022/01/04 13:54:31;;;;;;;;;;;9.90;98.60;;;;;;5054573;28;19929;-76
2022/01/04 13:57:10;;;;;;;;;;;9.90;98.50;;;;;;5061762;28;19929;-75
2022/01/04 13:59:37;;;;;;;;;;;9.90;98.50;;;;;;5061116;28;19942;-75
2022/01/04 14:02:03;;;;;;;;;;;9.90;98.50;;;;;;5064131;28;19936;-76
2022/01/04 14:04:33;;;;;;;;;;;9.80;98.50;;;;;;5061548;28;19936;-75
2022/01/04 14:07:00;;;;;;;;;;;9.80;98.50;;;;;;5059761;28;19936;-79
2022/01/04 14:09:29;;;;;;;;;;;9.80;98.50;;;;;;5060743;28;19977;-75
2022/01/04 14:12:03;;;;;;;;;;;9.80;98.50;;;;;;5060409;28;19968;-75
2022/01/04 14:14:30;;;;;;;;;;;9.70;98.50;;;;;;5061054;28;19931;-76
2022/01/04 14:16:59;;;;;;;;;;;9.70;98.50;;;;;;5061423;28;19939;-76
2022/01/04 14:19:27;;;;;;;;;;;9.60;98.50;;;;;;5059366;28;19964;-75
2022/01/04 14:22:02;;;;;;;;;;;9.60;98.50;;;;;;5056660;28;19936;-77
2022/01/04 14:24:46;;;;;;;;;;;9.60;98.50;;;;;;5058171;28;19929;-77
2022/01/04 14:27:20;;;;;;;;;;;9.60;98.60;;;;;;5060979;28;19962;-74
2022/01/04 14:29:47;;;;;;;;;;;9.60;98.60;;;;;;5058171;28;20533;-68
2022/01/04 14:32:19;;;;;;;;;;;9.50;98.50;;;;;;5044071;28;20388;-68
2022/01/04 14:34:46;;;;;;;;;;;9.50;98.50;;;;;;5044267;28;19933;-68
2022/01/04 14:37:14;;;;;;;;;;;9.50;98.50;;;;;;5042969;28;19929;-68
2022/01/04 14:39:41;;;;;;;;;;;9.50;98.50;;;;;;5040156;28;19929;-68
2022/01/04 14:42:07;;;;;;;;;;;9.40;98.50;;;;;;5045052;28;19935;-67
2022/01/04 14:44:34;;;;;;;;;;;9.40;98.80;;;;;;5044184;28;19932;-68